Time;durP1;ratioP1;P1;durP2;ratioP2;P2;SDS_P1;SDS_P2;PMS_P1;PMS_P2;Temp;Humidity;BMP_temperature;BMP_pressure;BME280_temperature;BME280_humidity;BME280_pressure;Samples;Min_cycle;Max_cycle;Signal;HPM_P1;HPM_P2
2022/08/26 05:03:26;;;;;;;7.35;5.72;;;19.20;99.90;;;;;;5079929;23;20056;-76
2022/08/26 05:05:52;;;;;;;8.60;5.47;;;19.30;99.90;;;;;;4943289;29;20033;-74
2022/08/26 05:08:21;;;;;;;8.10;6.38;;;19.30;99.90;;;;;;4928243;29;20046;-78
2022/08/26 05:10:51;;;;;;;7.07;5.72;;;19.30;99.90;;;;;;4943570;29;20111;-75
2022/08/26 05:13:19;;;;;;;9.85;6.32;;;19.40;99.90;;;;;;4927729;29;20052;-78
2022/08/26 05:15:46;;;;;;;7.13;5.90;;;19.40;99.90;;;;;;4928026;29;20023;-78
2022/08/26 05:18:15;;;;;;;6.82;5.10;;;19.50;99.90;;;;;;4944244;29;20067;-76
2022/08/26 05:20:43;;;;;;;7.72;5.38;;;19.50;99.90;;;;;;4944468;29;20035;-76
2022/08/26 05:23:09;;;;;;;;;;;19.50;99.90;;;;;;4927778;29;20027;-77
2022/08/26 05:25:44;;;;;;;8.23;5.65;;;19.50;99.90;;;;;;4944545;29;19914;-75
2022/08/26 05:28:11;;;;;;;8.70;5.93;;;19.60;99.90;;;;;;4939678;29;20068;-76
2022/08/26 05:30:38;;;;;;;7.85;5.60;;;19.70;99.90;;;;;;4942112;29;20038;-76
2022/08/26 05:33:05;;;;;;;9.73;5.78;;;19.70;99.90;;;;;;4944023;29;20043;-78
2022/08/26 05:35:32;;;;;;;7.68;5.45;;;19.70;99.90;;;;;;4940627;29;20210;-76
2022/08/26 05:38:05;;;;;;;8.13;5.45;;;19.70;99.90;;;;;;4925677;29;20038;-77
2022/08/26 05:40:39;;;;;;;11.30;5.90;;;19.80;99.90;;;;;;4922320;29;20221;-76
2022/08/26 05:43:09;;;;;;;10.60;6.63;;;19.80;99.90;;;;;;4939543;29;20066;-76
2022/08/26 05:45:40;;;;;;;8.82;6.28;;;19.80;99.90;;;;;;4942753;29;20050;-75
2022/08/26 05:48:09;;;;;;;7.15;5.40;;;19.70;99.90;;;;;;4926620;29;20106;-78
2022/08/26 05:50:43;;;;;;;9.68;5.60;;;19.80;99.90;;;;;;4944209;29;20054;-78
2022/08/26 05:53:11;;;;;;;10.18;5.18;;;19.80;99.90;;;;;;4927086;29;20292;-77
2022/08/26 05:55:51;;;;;;;8.43;5.10;;;19.80;99.90;;;;;;4927621;29;20135;-77
2022/08/26 05:58:19;;;;;;;7.78;5.50;;;19.90;99.90;;;;;;4930648;29;20095;-77
2022/08/26 06:00:47;;;;;;;8.30;5.10;;;20.00;99.90;;;;;;4948363;29;20099;-76
2022/08/26 06:03:13;;;;;;;8.55;5.30;;;20.10;99.90;;;;;;4930669;29;20057;-77
2022/08/26 06:05:45;;;;;;;7.30;6.00;;;20.10;99.90;;;;;;4930239;29;20309;-78
2022/08/26 06:08:12;;;;;;;9.15;5.50;;;20.20;99.90;;;;;;4946072;29;20031;-77
2022/08/26 06:10:57;;;;;;;7.15;5.55;;;20.10;99.90;;;;;;4930950;29;20032;-77
2022/08/26 06:13:32;;;;;;;7.85;5.57;;;20.10;99.90;;;;;;4947782;29;20039;-79
2022/08/26 06:15:58;;;;;;;10.68;6.28;;;20.10;99.90;;;;;;4935069;29;20035;-78
2022/08/26 06:18:35;;;;;;;9.65;5.75;;;20.10;99.90;;;;;;4941228;29;20023;-78
2022/08/26 06:21:22;;;;;;;9.07;6.30;;;20.00;99.90;;;;;;4918308;29;20024;-78
2022/08/26 06:26:38;;;;;;;11.43;6.47;;;19.90;99.90;;;;;;4930837;29;20027;-76
2022/08/26 06:29:05;;;;;;;9.63;6.32;;;19.90;99.90;;;;;;4929631;29;20261;-77
2022/08/26 06:31:35;;;;;;;9.65;6.25;;;19.90;99.90;;;;;;4947856;29;20094;-79
2022/08/26 06:34:03;;;;;;;11.32;6.25;;;19.90;99.90;;;;;;4930225;29;20246;-79
2022/08/26 06:36:46;;;;;;;8.00;6.30;;;19.90;99.90;;;;;;4931157;29;20301;-78
2022/08/26 06:39:15;;;;;;;11.82;6.07;;;20.10;99.90;;;;;;4946772;29;20039;-76
2022/08/26 06:41:43;;;;;;;8.00;5.93;;;20.20;99.90;;;;;;4930620;29;20028;-76
2022/08/26 06:44:16;;;;;;;11.55;6.93;;;20.30;99.90;;;;;;4928425;29;20069;-75
2022/08/26 06:46:42;;;;;;;8.15;6.28;;;20.40;99.90;;;;;;4939437;29;20051;-77
2022/08/26 06:49:08;;;;;;;9.65;6.18;;;20.60;99.90;;;;;;4941352;29;20095;-76
2022/08/26 06:51:37;;;;;;;7.35;5.55;;;20.60;99.90;;;;;;4945124;29;20020;-77
2022/08/26 06:54:03;;;;;;;;;;;20.80;99.90;;;;;;4945617;29;20046;-76
2022/08/26 06:56:39;;;;;;;10.13;6.15;;;20.90;99.90;;;;;;4945427;29;19946;-77
2022/08/26 06:59:06;;;;;;;9.57;5.55;;;21.00;99.90;;;;;;4945236;29;20039;-76
2022/08/26 07:01:36;;;;;;;7.68;5.93;;;21.10;99.90;;;;;;4945986;29;20038;-74
2022/08/26 07:04:03;;;;;;;9.40;6.22;;;21.20;99.90;;;;;;4945732;29;20103;-76
2022/08/26 07:06:30;;;;;;;8.88;6.32;;;21.20;99.90;;;;;;4945787;29;20051;-77
2022/08/26 07:09:03;;;;;;;9.10;6.18;;;21.20;99.90;;;;;;4945140;29;20351;-75
2022/08/26 07:11:31;;;;;;;8.82;5.95;;;21.30;99.90;;;;;;4941296;29;20055;-76
2022/08/26 07:13:57;;;;;;;7.80;5.57;;;21.30;99.90;;;;;;4926658;29;20278;-75
2022/08/26 07:16:23;;;;;;;8.38;5.55;;;21.50;99.70;;;;;;4936507;29;20015;-76
2022/08/26 07:18:59;;;;;;;9.48;5.88;;;21.60;99.20;;;;;;4945220;29;20058;-75
2022/08/26 07:21:25;;;;;;;8.00;5.50;;;21.70;98.70;;;;;;4945239;29;20055;-78
2022/08/26 07:23:52;;;;;;;7.95;5.20;;;21.90;98.00;;;;;;4928520;29;20039;-76
2022/08/26 07:26:24;;;;;;;9.75;5.38;;;22.00;97.50;;;;;;4945432;29;20355;-74
2022/08/26 07:28:51;;;;;;;12.20;5.53;;;22.00;97.20;;;;;;4945603;29;20216;-77
2022/08/26 07:31:19;;;;;;;10.45;5.72;;;22.10;96.90;;;;;;4945385;29;20044;-77
2022/08/26 07:33:45;;;;;;;7.85;5.38;;;22.10;97.00;;;;;;4945414;29;20046;-75
2022/08/26 07:36:13;;;;;;;7.32;5.57;;;22.20;96.70;;;;;;4945295;29;20062;-78
2022/08/26 07:38:43;;;;;;;9.80;5.53;;;22.30;96.20;;;;;;4927805;29;20043;-77
2022/08/26 07:41:16;;;;;;;6.68;5.20;;;22.50;95.80;;;;;;4945326;29;20023;-78
2022/08/26 07:43:48;;;;;;;7.95;5.60;;;22.60;95.20;;;;;;4945299;29;20039;-77
2022/08/26 07:46:18;;;;;;;8.32;5.20;;;22.60;95.20;;;;;;4945225;29;20038;-78
2022/08/26 07:52:32;;;;;;;9.00;5.22;;;22.90;94.20;;;;;;4900174;29;20097;-82
2022/08/26 07:55:03;;;;;;;7.63;5.63;;;23.20;93.60;;;;;;4881759;29;20081;-79
2022/08/26 07:57:33;;;;;;;9.60;5.80;;;23.20;92.90;;;;;;4886251;29;20060;-80
2022/08/26 08:00:15;;;;;;;6.35;4.88;;;23.40;93.00;;;;;;4886323;29;20084;-79
2022/08/26 08:02:41;;;;;;;5.85;4.90;;;23.50;92.50;;;;;;4885773;29;20044;-78
2022/08/26 08:05:07;;;;;;;7.57;4.90;;;23.60;92.10;;;;;;4885930;29;20327;-80
2022/08/26 08:07:32;;;;;;;8.77;4.93;;;23.60;91.90;;;;;;4886284;29;20041;-80
2022/08/26 08:09:58;;;;;;;7.53;5.38;;;23.60;91.60;;;;;;4880023;29;20075;-79
2022/08/26 08:12:24;;;;;;;7.05;5.15;;;23.90;91.50;;;;;;4886068;29;20060;-77
2022/08/26 08:14:50;;;;;;;8.45;4.70;;;23.90;91.10;;;;;;4886199;29;20081;-77
2022/08/26 08:17:16;;;;;;;9.25;4.72;;;24.10;90.60;;;;;;4870405;29;20025;-78
2022/08/26 08:19:42;;;;;;;8.43;4.88;;;24.30;90.30;;;;;;4876519;29;20032;-76
2022/08/26 08:22:17;;;;;;;7.80;5.10;;;24.50;89.20;;;;;;4894870;29;20033;-80
2022/08/26 08:24:55;;;;;;;10.23;4.88;;;24.60;88.50;;;;;;4862688;29;20028;-80
2022/08/26 08:27:20;;;;;;;12.20;4.60;;;24.90;88.00;;;;;;4870372;29;20033;-78
2022/08/26 08:29:46;;;;;;;11.40;4.75;;;25.00;87.00;;;;;;4936548;29;20111;-77
2022/08/26 08:32:12;;;;;;;10.35;4.75;;;25.10;86.00;;;;;;4911935;29;20031;-77
2022/08/26 08:34:40;;;;;;;7.80;4.68;;;25.20;85.70;;;;;;4944364;29;20042;-77
2022/08/26 08:37:06;;;;;;;9.73;4.45;;;25.20;85.10;;;;;;4943442;29;20206;-78
2022/08/26 08:39:32;;;;;;;12.20;4.55;;;25.00;85.20;;;;;;4927816;29;20039;-78
2022/08/26 08:42:23;;;;;;;8.00;5.25;;;25.00;85.80;;;;;;4927423;29;20028;-77
2022/08/26 08:44:56;;;;;;;6.40;4.60;;;24.90;85.60;;;;;;4944255;29;20305;-77
2022/08/26 08:47:44;;;;;;;6.75;4.35;;;24.80;85.60;;;;;;4943657;29;20087;-78
2022/08/26 08:50:48;;;;;;;7.80;3.92;;;24.90;85.80;;;;;;4926547;29;20035;-78
2022/08/26 08:53:30;;;;;;;6.53;3.70;;;25.10;85.50;;;;;;4942938;29;20031;-76
2022/08/26 08:56:15;;;;;;;6.93;3.85;;;25.30;85.20;;;;;;4924960;29;20111;-75
2022/08/26 08:58:59;;;;;;;7.50;4.03;;;25.60;84.00;;;;;;4924863;29;20055;-75
2022/08/26 09:01:56;;;;;;;7.90;4.40;;;25.90;83.10;;;;;;4924991;29;20043;-76
2022/08/26 09:04:31;;;;;;;8.63;4.70;;;26.20;82.50;;;;;;4924502;29;20111;-77
2022/08/26 09:06:59;;;;;;;7.93;4.25;;;26.40;81.80;;;;;;4925172;29;20032;-79
2022/08/26 09:09:37;;;;;;;12.07;4.28;;;26.80;80.70;;;;;;4925028;29;20286;-77
2022/08/26 09:12:06;;;;;;;9.05;4.28;;;27.00;79.50;;;;;;4924510;29;20051;-76
2022/08/26 09:14:32;;;;;;;7.47;4.35;;;27.30;78.70;;;;;;4918962;29;20040;-75
2022/08/26 09:17:45;;;;;;;7.95;4.40;;;27.40;77.10;;;;;;4936844;29;20043;-77
2022/08/26 09:20:47;;;;;;;9.55;4.15;;;27.50;76.80;;;;;;4865630;29;20272;-77
2022/08/26 09:23:13;;;;;;;9.55;4.22;;;27.80;76.10;;;;;;4856313;29;20595;-76
2022/08/26 09:26:28;;;;;;;8.43;3.90;;;28.00;75.40;;;;;;4866679;29;20349;-72
2022/08/26 09:29:15;;;;;;;9.15;4.40;;;28.40;75.00;;;;;;4775799;30;20077;-77
2022/08/26 09:31:41;;;;;;;7.05;3.80;;;28.60;74.30;;;;;;4775542;30;20052;-77
2022/08/26 09:34:17;;;;;;;8.75;3.80;;;28.80;73.00;;;;;;4774708;30;20069;-78
2022/08/26 09:36:44;;;;;;;9.07;3.83;;;28.80;72.90;;;;;;4775614;30;20332;-77
2022/08/26 09:39:35;;;;;;;10.02;3.63;;;29.00;71.40;;;;;;4775211;30;20047;-76
2022/08/26 09:42:07;;;;;;;5.82;3.28;;;29.20;71.10;;;;;;4775207;30;20099;-78
2022/08/26 09:44:35;;;;;;;8.32;3.58;;;29.40;70.90;;;;;;4775656;30;20048;-77
2022/08/26 09:47:06;;;;;;;7.22;3.40;;;29.40;69.90;;;;;;4775499;30;20077;-76
2022/08/26 09:49:35;;;;;;;6.95;3.58;;;29.50;69.60;;;;;;4776616;30;20048;-74
2022/08/26 09:52:25;;;;;;;6.95;3.10;;;29.40;69.20;;;;;;4847232;29;20070;-78
2022/08/26 09:55:01;;;;;;;6.32;3.65;;;29.50;69.40;;;;;;4832997;29;20400;-75
2022/08/26 09:57:33;;;;;;;9.55;3.33;;;29.60;69.10;;;;;;4832979;29;20053;-74
2022/08/26 10:00:00;;;;;;;7.95;3.40;;;29.70;69.00;;;;;;4847614;29;20086;-77
2022/08/26 10:02:32;;;;;;;5.63;3.60;;;29.80;68.80;;;;;;4889147;29;20039;-77
2022/08/26 10:05:01;;;;;;;8.05;3.80;;;29.90;69.00;;;;;;4944300;29;20040;-76
2022/08/26 10:07:39;;;;;;;6.70;3.72;;;30.00;68.20;;;;;;4943760;28;20298;-78
2022/08/26 10:10:11;;;;;;;7.30;4.23;;;30.10;68.10;;;;;;4942499;29;20031;-73
2022/08/26 10:12:45;;;;;;;8.13;4.10;;;30.10;68.20;;;;;;4944105;29;20483;-79
2022/08/26 10:15:13;;;;;;;8.32;4.55;;;30.30;67.70;;;;;;4925484;29;20027;-76
2022/08/26 10:17:40;;;;;;;8.93;4.13;;;30.20;67.70;;;;;;4943170;29;20028;-76
2022/08/26 10:20:29;;;;;;;8.20;4.03;;;30.30;68.10;;;;;;4942228;29;20329;-76
2022/08/26 10:23:01;;;;;;;13.95;5.20;;;30.40;67.80;;;;;;4926042;29;20107;-74
2022/08/26 10:25:32;;;;;;;11.65;4.88;;;30.50;67.60;;;;;;4943038;29;20127;-75
2022/08/26 10:28:39;;;;;;;9.43;4.43;;;30.50;67.30;;;;;;4943024;29;20042;-76
2022/08/26 10:31:17;;;;;;;8.57;3.90;;;30.50;67.30;;;;;;4850400;29;20036;-76
2022/08/26 10:33:46;;;;;;;7.28;4.05;;;30.70;67.10;;;;;;4942985;29;20389;-79
2022/08/26 10:39:06;;;;;;;9.27;4.75;;;30.90;66.00;;;;;;4925748;29;20043;-76
2022/08/26 10:41:37;;;;;;;9.48;6.75;;;30.90;66.50;;;;;;4942730;29;20051;-75
2022/08/26 10:44:07;;;;;;;9.18;4.53;;;30.90;66.50;;;;;;4943052;29;20039;-76
2022/08/26 10:46:45;;;;;;;12.13;4.95;;;31.00;65.10;;;;;;4946203;29;20313;-77
2022/08/26 10:49:14;;;;;;;12.48;5.75;;;31.10;65.20;;;;;;4945928;29;20024;-75
2022/08/26 10:52:00;;;;;;;9.43;4.70;;;31.30;65.00;;;;;;4928793;29;20388;-75
2022/08/26 10:54:50;;;;;;;10.75;4.82;;;31.50;64.10;;;;;;4945673;29;20043;-75
2022/08/26 10:57:26;;;;;;;10.40;4.93;;;31.60;63.00;;;;;;4945966;29;20368;-75
2022/08/26 11:03:26;;;;;;;7.90;4.57;;;32.00;62.80;;;;;;4964498;28;20347;-76
2022/08/26 11:06:14;;;;;;;9.77;4.65;;;32.20;62.10;;;;;;4965453;29;20058;-76
2022/08/26 11:08:50;;;;;;;8.23;4.53;;;32.70;61.20;;;;;;4965083;29;20035;-75
2022/08/26 11:11:40;;;;;;;10.25;4.93;;;32.70;61.10;;;;;;4964584;29;20038;-75
2022/08/26 11:14:08;;;;;;;8.65;4.47;;;32.70;60.50;;;;;;4964566;29;20023;-75
2022/08/26 11:17:02;;;;;;;10.65;4.45;;;33.30;59.50;;;;;;4959460;29;20039;-78
2022/08/26 11:19:40;;;;;;;10.82;5.10;;;33.90;58.90;;;;;;4962742;28;20110;-75
2022/08/26 11:22:24;;;;;;;12.50;4.60;;;34.40;58.00;;;;;;4965927;29;20035;-76
2022/08/26 11:25:02;;;;;;;12.32;4.70;;;34.70;58.30;;;;;;4948319;29;20106;-76
2022/08/26 11:27:37;;;;;;;10.13;4.68;;;34.90;58.50;;;;;;4964325;29;20043;-73
2022/08/26 11:30:11;;;;;;;14.18;4.88;;;35.40;58.20;;;;;;4947476;29;20039;-74
2022/08/26 11:32:40;;;;;;;9.13;4.97;;;36.70;57.00;;;;;;4964693;29;20094;-75
2022/08/26 11:35:06;;;;;;;10.65;4.18;;;37.40;54.90;;;;;;4964301;29;20102;-76
2022/08/26 11:37:39;;;;;;;5.82;3.83;;;38.00;54.20;;;;;;4964463;29;20407;-75
2022/08/26 11:40:14;;;;;;;8.88;4.55;;;37.90;53.60;;;;;;4963482;28;20067;-74
2022/08/26 11:42:50;;;;;;;6.95;3.90;;;38.50;53.20;;;;;;4964427;29;20031;-73
2022/08/26 11:45:45;;;;;;;6.85;3.83;;;37.70;53.50;;;;;;4963821;29;20042;-78
2022/08/26 11:48:19;;;;;;;8.40;4.32;;;38.10;53.50;;;;;;4933718;29;20151;-77
2022/08/26 11:51:00;;;;;;;7.93;4.13;;;39.50;52.20;;;;;;4929099;29;20036;-78
2022/08/26 11:53:32;;;;;;;8.63;3.70;;;40.30;51.30;;;;;;4945577;29;20327;-80
2022/08/26 11:56:00;;;;;;;10.35;4.30;;;40.50;50.50;;;;;;4964000;29;20086;-77
2022/08/26 11:58:27;;;;;;;9.32;3.65;;;40.10;50.30;;;;;;4963836;29;20039;-77
2022/08/26 12:00:59;;;;;;;7.95;3.67;;;40.20;50.50;;;;;;4963271;28;20054;-77
2022/08/26 12:03:50;;;;;;;12.55;3.85;;;40.70;49.70;;;;;;4964026;29;20115;-75
2022/08/26 12:06:24;;;;;;;6.75;3.80;;;41.30;49.40;;;;;;4954559;29;20069;-75
2022/08/26 12:08:52;;;;;;;10.80;4.10;;;42.00;49.00;;;;;;4931371;29;20046;-76
2022/08/26 12:11:23;;;;;;;7.43;3.42;;;43.10;48.00;;;;;;4963470;29;20035;-76
2022/08/26 12:13:56;;;;;;;10.85;3.97;;;43.10;47.30;;;;;;4964252;29;20066;-77
2022/08/26 12:16:28;;;;;;;11.75;3.55;;;43.00;47.60;;;;;;4963825;29;20054;-74
2022/08/26 12:18:54;;;;;;;10.93;4.43;;;43.00;47.90;;;;;;4946711;29;20051;-75
2022/08/26 12:21:24;;;;;;;8.85;3.92;;;42.50;47.80;;;;;;4963103;29;20047;-74
2022/08/26 12:23:53;;;;;;;10.02;4.32;;;40.90;48.80;;;;;;4964239;29;20101;-74
2022/08/26 12:26:34;;;;;;;7.68;3.83;;;39.10;50.70;;;;;;4963480;29;20043;-75
2022/08/26 12:29:22;;;;;;;8.07;4.72;;;38.00;51.90;;;;;;4964115;29;20317;-75
2022/08/26 12:32:05;;;;;;;11.32;4.65;;;37.40;53.10;;;;;;4963759;29;20098;-75
2022/08/26 12:34:36;;;;;;;11.13;4.22;;;36.90;54.20;;;;;;4963297;29;20031;-75
2022/08/26 12:37:06;;;;;;;8.88;4.43;;;38.60;53.20;;;;;;4963636;29;20096;-75
2022/08/26 12:39:40;;;;;;;12.27;4.65;;;40.60;51.10;;;;;;4946447;29;20054;-77
2022/08/26 12:42:14;;;;;;;11.50;4.25;;;41.90;49.50;;;;;;4945666;29;20039;-75
2022/08/26 12:45:05;;;;;;;8.68;4.30;;;42.50;48.70;;;;;;4963342;29;20131;-74
2022/08/26 12:47:44;;;;;;;10.80;4.40;;;42.40;48.30;;;;;;4964025;29;20027;-75
2022/08/26 12:50:21;;;;;;;8.88;3.80;;;42.90;47.80;;;;;;4962909;29;20050;-74
2022/08/26 12:52:56;;;;;;;8.60;3.80;;;43.50;47.20;;;;;;4929320;29;20229;-77
2022/08/26 12:55:27;;;;;;;8.85;3.90;;;43.10;47.00;;;;;;4962977;29;20034;-77
2022/08/26 12:58:15;;;;;;;12.23;4.22;;;42.00;47.50;;;;;;4963362;29;20034;-75
2022/08/26 13:01:09;;;;;;;9.13;4.18;;;41.30;48.30;;;;;;4944308;28;20043;-75
2022/08/26 13:03:49;;;;;;;13.35;4.28;;;39.80;49.60;;;;;;4942936;29;20054;-76
2022/08/26 13:06:21;;;;;;;9.15;4.00;;;40.20;49.70;;;;;;4942700;29;20036;-76
2022/08/26 13:09:19;;;;;;;10.50;4.38;;;40.90;49.60;;;;;;4944083;29;20040;-75
2022/08/26 13:11:45;;;;;;;7.30;4.55;;;41.50;48.70;;;;;;4866617;29;20053;-76
2022/08/26 13:14:16;;;;;;;10.32;4.15;;;42.30;48.30;;;;;;4851322;29;20106;-76
2022/08/26 13:17:02;;;;;;;9.27;4.13;;;43.10;46.90;;;;;;4866430;29;20120;-80
2022/08/26 13:19:48;;;;;;;13.43;4.38;;;44.50;46.30;;;;;;4883547;29;20366;-74
2022/08/26 13:22:17;;;;;;;11.57;4.77;;;45.00;45.70;;;;;;4867371;29;20033;-75
2022/08/26 13:24:43;;;;;;;7.40;3.78;;;43.30;46.10;;;;;;4884876;29;20209;-78
2022/08/26 13:27:12;;;;;;;8.90;3.33;;;41.70;47.10;;;;;;4884599;29;20100;-76
2022/08/26 13:29:38;;;;;;;9.63;3.60;;;40.10;48.50;;;;;;4853609;29;20298;-76
2022/08/26 13:32:05;;;;;;;7.78;3.83;;;39.20;49.50;;;;;;4884932;29;20043;-75
2022/08/26 13:34:31;;;;;;;10.10;4.13;;;39.40;49.70;;;;;;4884249;29;20089;-75
2022/08/26 13:36:57;;;;;;;12.30;4.70;;;38.50;49.80;;;;;;4884945;29;20381;-74
2022/08/26 13:39:24;;;;;;;9.73;4.20;;;37.50;50.70;;;;;;4884057;29;20043;-73
2022/08/26 13:41:51;;;;;;;10.35;4.30;;;36.90;51.50;;;;;;4885015;29;20339;-75
2022/08/26 13:44:17;;;;;;;7.70;3.70;;;36.40;51.50;;;;;;4884209;29;20041;-75
2022/08/26 13:46:43;;;;;;;10.00;4.15;;;36.00;52.30;;;;;;4886827;29;20060;-72
2022/08/26 13:49:10;;;;;;;11.30;3.83;;;35.70;52.90;;;;;;4925177;29;20040;-74
2022/08/26 13:51:36;;;;;;;8.45;3.58;;;35.40;52.70;;;;;;4925452;29;20064;-73
2022/08/26 13:54:03;;;;;;;9.80;3.20;;;34.90;52.30;;;;;;4932182;29;20032;-75
2022/08/26 13:56:30;;;;;;;9.20;3.50;;;34.50;52.40;;;;;;4945662;29;20245;-74
2022/08/26 13:58:57;;;;;;;11.27;4.00;;;34.30;53.20;;;;;;4943196;29;20062;-74
2022/08/26 14:01:23;;;;;;;7.18;3.30;;;34.10;52.60;;;;;;4942779;29;20115;-73
2022/08/26 14:03:52;;;;;;;10.15;3.72;;;33.80;52.90;;;;;;4962173;28;20042;-74
2022/08/26 14:06:18;;;;;;;7.32;3.45;;;33.70;53.70;;;;;;4962272;29;20030;-73
2022/08/26 14:08:44;;;;;;;9.68;3.60;;;33.60;54.10;;;;;;4962215;29;20091;-74
2022/08/26 14:11:10;;;;;;;9.65;4.20;;;33.40;54.60;;;;;;4962319;29;20039;-73
2022/08/26 14:13:38;;;;;;;7.25;3.78;;;33.10;55.30;;;;;;4944700;29;20101;-77
2022/08/26 14:16:08;;;;;;;9.32;4.25;;;33.00;56.40;;;;;;4963472;29;20023;-74
2022/08/26 14:18:39;;;;;;;10.55;4.57;;;32.80;56.50;;;;;;4949241;29;20177;-75
2022/08/26 14:21:06;;;;;;;10.15;4.00;;;32.70;56.50;;;;;;4949922;29;20539;-75
2022/08/26 14:23:41;;;;;;;10.97;4.40;;;32.70;56.80;;;;;;4966604;29;20254;-76
2022/08/26 14:26:09;;;;;;;12.65;4.45;;;32.50;56.70;;;;;;4955984;29;20038;-78
2022/08/26 14:29:10;;;;;;;7.38;4.28;;;32.40;57.10;;;;;;4966066;29;20067;-77
2022/08/26 14:31:36;;;;;;;11.50;4.20;;;32.20;57.60;;;;;;4924685;29;20059;-76
2022/08/26 14:34:08;;;;;;;10.95;4.47;;;31.90;58.00;;;;;;4965779;29;20031;-76
2022/08/26 14:36:35;;;;;;;10.57;5.28;;;31.70;58.50;;;;;;4948383;29;20082;-79
2022/08/26 14:39:08;;;;;;;13.38;4.70;;;31.60;58.60;;;;;;4948749;29;20031;-74
2022/08/26 14:41:39;;;;;;;7.85;4.40;;;31.50;58.70;;;;;;4965203;29;20034;-74
2022/08/26 14:44:12;;;;;;;11.52;4.75;;;31.40;59.20;;;;;;4948420;29;20220;-74
2022/08/26 14:46:45;;;;;;;8.18;4.35;;;31.40;59.20;;;;;;4965458;29;20039;-76
2022/08/26 14:49:19;;;;;;;13.68;4.75;;;31.40;59.50;;;;;;4965420;29;20082;-75
2022/08/26 14:51:48;;;;;;;8.68;4.63;;;31.30;59.60;;;;;;4965289;29;20090;-75
2022/08/26 14:54:24;;;;;;;12.07;4.60;;;31.20;59.70;;;;;;4964811;29;20023;-75
2022/08/26 14:57:04;;;;;;;11.75;5.15;;;31.30;59.80;;;;;;4965900;29;20098;-76
2022/08/26 14:59:35;;;;;;;11.20;4.38;;;31.30;59.80;;;;;;4966292;29;20237;-77
2022/08/26 15:02:01;;;;;;;8.75;4.88;;;31.40;59.50;;;;;;4965027;29;20105;-77
2022/08/26 15:04:27;;;;;;;10.25;4.43;;;31.40;59.30;;;;;;4964889;28;20257;-76
2022/08/26 15:06:57;;;;;;;10.82;4.57;;;31.30;59.00;;;;;;4965639;29;20035;-75
2022/08/26 15:09:24;;;;;;;11.73;4.35;;;31.30;59.20;;;;;;4947620;29;20039;-76
2022/08/26 15:11:50;;;;;;;9.98;4.18;;;31.30;59.90;;;;;;4965161;29;20039;-76
2022/08/26 15:14:16;;;;;;;10.20;4.65;;;31.20;59.50;;;;;;4964741;29;20019;-76
2022/08/26 15:16:42;;;;;;;14.10;4.72;;;31.20;59.70;;;;;;4965084;29;20046;-76
2022/08/26 15:19:08;;;;;;;11.05;4.88;;;31.10;60.10;;;;;;4961378;29;20039;-74
2022/08/26 15:21:35;;;;;;;10.75;4.32;;;31.00;60.30;;;;;;4963902;28;20038;-76
2022/08/26 15:24:02;;;;;;;14.50;4.75;;;31.00;60.90;;;;;;4964999;29;20098;-73
2022/08/26 15:26:30;;;;;;;10.60;4.55;;;31.00;60.30;;;;;;4964588;29;20038;-74
2022/08/26 15:28:56;;;;;;;17.42;4.70;;;30.80;60.50;;;;;;4964208;28;20170;-74
2022/08/26 15:31:30;;;;;;;12.30;4.85;;;30.60;60.40;;;;;;4964357;29;20033;-74
2022/08/26 15:34:16;;;;;;;10.10;4.80;;;30.50;61.30;;;;;;4964610;29;20091;-73
2022/08/26 15:36:44;;;;;;;11.68;4.93;;;30.40;61.60;;;;;;4964677;29;20035;-75
2022/08/26 15:39:10;;;;;;;9.77;4.82;;;30.30;62.10;;;;;;4963943;28;20082;-76
2022/08/26 15:41:36;;;;;;;10.38;5.10;;;30.10;62.60;;;;;;4964241;29;20023;-76
2022/08/26 15:44:04;;;;;;;10.40;5.72;;;30.10;62.70;;;;;;4947548;29;20027;-74
2022/08/26 15:46:30;;;;;;;9.65;4.95;;;29.90;63.30;;;;;;4964202;29;20031;-74
2022/08/26 15:48:56;;;;;;;11.20;5.07;;;29.80;64.30;;;;;;4947206;29;20035;-76
2022/08/26 15:51:23;;;;;;;12.32;5.13;;;29.30;66.60;;;;;;4964165;29;20211;-74
2022/08/26 15:53:50;;;;;;;9.60;4.40;;;29.10;67.00;;;;;;4964698;29;20042;-76
2022/08/26 15:56:15;;;;;;;8.20;4.55;;;28.40;68.60;;;;;;4964080;29;20182;-76
2022/08/26 15:58:41;;;;;;;12.32;4.65;;;28.00;70.10;;;;;;4964457;29;20054;-77
2022/08/26 16:01:07;;;;;;;10.02;4.50;;;27.60;71.20;;;;;;4963694;28;20043;-76
2022/08/26 16:03:34;;;;;;;7.97;4.53;;;27.40;71.20;;;;;;4962689;29;20043;-76
2022/08/26 16:06:00;;;;;;;6.05;3.80;;;27.10;72.50;;;;;;4963451;29;20042;-71
2022/08/26 16:08:26;;;;;;;13.57;3.40;;;26.50;74.70;;;;;;4963103;29;20031;-73
2022/08/26 16:10:51;;;;;;;10.07;3.55;;;25.90;77.80;;;;;;4963609;29;20245;-73
2022/08/26 16:13:18;;;;;;;11.15;4.15;;;25.10;84.20;;;;;;4962997;29;20050;-72
2022/08/26 16:15:44;;;;;;;12.15;4.15;;;23.80;90.00;;;;;;4946129;29;20230;-73
2022/08/26 16:18:10;;;;;;;11.07;4.65;;;22.30;99.90;;;;;;4963570;29;20019;-73
2022/08/26 16:20:37;;;;;;;9.18;4.45;;;20.00;99.90;;;;;;4961588;29;20051;-69
2022/08/26 16:23:06;;;;;;;7.00;4.43;;;19.10;99.90;;;;;;4963359;29;20034;-73
2022/08/26 16:25:32;;;;;;;7.72;4.65;;;18.70;99.90;;;;;;4962918;29;20324;-77
2022/08/26 16:28:01;;;;;;;7.82;4.55;;;18.30;99.90;;;;;;4946795;29;20082;-71
2022/08/26 16:30:27;;;;;;;7.40;4.78;;;18.20;99.90;;;;;;4963423;29;20106;-71
2022/08/26 16:32:54;;;;;;;7.72;4.93;;;18.20;99.90;;;;;;4964133;29;20253;-73
2022/08/26 16:35:20;;;;;;;10.45;6.47;;;18.30;99.90;;;;;;4963758;29;20246;-73
2022/08/26 16:37:46;;;;;;;10.27;6.95;;;18.50;99.90;;;;;;4964034;29;20038;-75
2022/08/26 16:40:12;;;;;;;13.20;7.85;;;18.60;99.90;;;;;;4963595;28;20035;-75
2022/08/26 16:42:37;;;;;;;12.60;7.45;;;18.60;99.90;;;;;;4962818;29;20038;-72
2022/08/26 16:45:04;;;;;;;12.52;7.93;;;18.50;99.90;;;;;;4962928;29;20023;-73
2022/08/26 16:47:31;;;;;;;15.40;9.77;;;18.50;99.90;;;;;;4946324;29;20363;-76
2022/08/26 16:49:57;;;;;;;16.40;10.82;;;18.60;99.90;;;;;;4963993;29;20182;-74
2022/08/26 16:52:23;;;;;;;15.88;11.15;;;18.60;99.90;;;;;;4963625;29;20031;-74
2022/08/26 16:54:48;;;;;;;17.45;11.65;;;18.70;99.90;;;;;;4964071;29;20027;-74
2022/08/26 16:57:14;;;;;;;16.00;12.13;;;18.80;99.90;;;;;;4963858;29;20034;-76
2022/08/26 16:59:40;;;;;;;16.83;11.48;;;18.90;99.90;;;;;;4963182;29;20046;-73
2022/08/26 17:02:07;;;;;;;10.73;7.90;;;18.90;99.90;;;;;;4839320;28;3589436;-74
2022/08/26 17:04:39;;;;;;;12.50;8.18;;;18.80;99.90;;;;;;4964179;29;20102;-74
2022/08/26 17:07:05;;;;;;;10.80;7.55;;;18.70;99.90;;;;;;4964443;29;20360;-74
2022/08/26 17:09:36;;;;;;;10.73;7.63;;;18.70;99.90;;;;;;4963212;29;20031;-74
2022/08/26 17:12:14;;;;;;;10.07;7.10;;;18.60;99.90;;;;;;4964371;29;20039;-75
2022/08/26 17:14:40;;;;;;;10.98;7.22;;;18.50;99.90;;;;;;4946751;29;20063;-73
2022/08/26 17:17:05;;;;;;;9.60;5.82;;;18.50;99.90;;;;;;4931224;29;20023;-73
2022/08/26 17:19:31;;;;;;;8.27;5.72;;;18.40;99.90;;;;;;4960589;29;20301;-72
2022/08/26 17:22:00;;;;;;;7.97;5.05;;;18.40;99.90;;;;;;4946971;29;20038;-73
2022/08/26 17:24:26;;;;;;;6.85;4.95;;;18.40;99.90;;;;;;4963058;29;20046;-74
2022/08/26 17:26:52;;;;;;;6.53;4.18;;;18.30;99.90;;;;;;4964293;29;20270;-76
2022/08/26 17:29:17;;;;;;;7.45;4.30;;;18.20;99.90;;;;;;4964330;29;20297;-72
2022/08/26 17:31:43;;;;;;;8.48;4.22;;;18.20;99.90;;;;;;4963556;29;20038;-74
2022/08/26 17:34:09;;;;;;;7.00;4.75;;;18.10;99.90;;;;;;4963936;29;20308;-72
2022/08/26 17:36:34;;;;;;;8.40;4.65;;;18.00;99.90;;;;;;4963670;29;20035;-72
2022/08/26 17:39:00;;;;;;;7.13;4.30;;;17.90;99.90;;;;;;4964075;29;20313;-72
2022/08/26 17:41:27;;;;;;;5.97;4.13;;;17.80;99.90;;;;;;4963711;29;20027;-73
2022/08/26 17:43:53;;;;;;;6.95;3.90;;;17.70;99.90;;;;;;4963422;28;20074;-74
2022/08/26 17:46:19;;;;;;;6.75;4.53;;;17.70;99.90;;;;;;4963798;29;20033;-72
2022/08/26 17:48:47;;;;;;;8.90;4.95;;;17.70;99.90;;;;;;4946427;29;20023;-73
2022/08/26 17:51:15;;;;;;;9.25;4.57;;;17.70;99.90;;;;;;4964193;28;20054;-73
2022/08/26 17:53:42;;;;;;;7.22;4.15;;;17.70;99.90;;;;;;4967518;29;20294;-72
2022/08/26 17:56:10;;;;;;;7.45;4.35;;;17.70;99.90;;;;;;4951186;29;20055;-71
2022/08/26 17:58:36;;;;;;;;;;;17.60;99.90;;;;;;4968288;29;20027;-71
2022/08/26 18:01:03;;;;;;;8.25;5.18;;;17.70;99.90;;;;;;4950964;29;19909;-72
2022/08/26 18:03:29;;;;;;;8.70;5.75;;;17.60;99.90;;;;;;4965645;29;20071;-71
2022/08/26 18:05:56;;;;;;;7.82;5.05;;;17.70;99.90;;;;;;4967078;29;20106;-70
2022/08/26 18:08:22;;;;;;;8.40;5.80;;;17.80;99.90;;;;;;4950544;29;20228;-72
2022/08/26 18:10:49;;;;;;;11.68;7.72;;;17.80;99.90;;;;;;4967624;29;20031;-72
2022/08/26 18:13:15;;;;;;;13.32;9.13;;;17.90;99.90;;;;;;4967694;29;20019;-70
2022/08/26 18:15:44;;;;;;;15.10;9.73;;;18.00;99.90;;;;;;4966823;29;20054;-71
2022/08/26 18:18:11;;;;;;;15.07;9.50;;;18.10;99.90;;;;;;4967860;29;20035;-71
2022/08/26 18:20:38;;;;;;;14.95;10.30;;;18.10;99.90;;;;;;4967111;29;20027;-70